Artemis — SWZE — position and weather

sailwx.info

Track history (hours):
 
Tides and Currents Weather Stations Pressure Air Temp Water Temp Dewpoint Dewpoint Depression Visibility Wind Speed Wind Dir Waves Ship Positions

Artemis

Last reported at 2017-Jun-28 17:30 UTC. Time now 2017-Jun-28 17:37 UTC.
Position N 37°35' E 025°03'.

Length 89 m; draft 3.4 m.

Type: Ship. MMSI: 237026300.

Date/timePositionNaut miles runAvg speedWind from/ knotsBaromVisibWave heightAir tempDewpointWater temp
2017-Jun-28 17:30N 37°35' E 025°03'1214.5
2017-Jun-28 16:40N 37°44' E 024°52'3 1.7
2017-Jun-28 14:50N 37°42' E 024°49'514.6
2017-Jun-28 14:30N 37°38' E 024°52'1211.5
2017-Jun-28 13:28N 37°26' E 024°56'5 9.0
2017-Jun-28 12:55N 37°31' E 024°54'614.3
2017-Jun-28 12:30N 37°31' E 024°47'30 3.0
2017-Jun-28 02:43N 37°03' E 025°01'314.4
2017-Jun-28 02:30N 37°05' E 025°04'3 0.4
2017-Jun-27 18:46N 37°05' E 025°09'312.4
2017-Jun-27 18:31N 37°06' E 025°05'3214.0
2017-Jun-27 16:15N 36°50' E 024°30'414.4
2017-Jun-27 16:00N 36°48' E 024°26'2 1.8
2017-Jun-27 14:55N 36°47' E 024°25'46 7.5
2017-Jun-27 08:42N 37°31' E 024°44'314.4
2017-Jun-27 08:30N 37°31' E 024°47'714.0
2017-Jun-27 08:00N 37°30' E 024°56'4 7.8
2017-Jun-27 07:30N 37°26' E 024°56'6 8.4
2017-Jun-27 06:48N 37°31' E 024°52'414.4
2017-Jun-27 06:30N 37°31' E 024°47'2 0.2
2017-Jun-26 16:41N 37°31' E 024°44'314.8
2017-Jun-26 16:30N 37°31' E 024°47'714.4
2017-Jun-26 16:00N 37°30' E 024°56'4 6.2
2017-Jun-26 15:23N 37°26' E 024°56'4 9.5
2017-Jun-26 15:00N 37°23' E 024°58'713.9
2017-Jun-26 14:30N 37°19' E 024°51'18 2.4
2017-Jun-26 07:03N 37°03' E 025°01'113.9
2017-Jun-26 07:00N 37°04' E 025°02'6 8.1
2017-Jun-26 06:19N 37°05' E 025°09'412.0
2017-Jun-26 06:00N 37°05' E 025°04'17 1.4
2017-Jun-25 17:48N 37°16' E 024°47'515.2
2017-Jun-25 17:30N 37°19' E 024°51'815.4
2017-Jun-25 17:00N 37°24' E 024°59'3 5.9
2017-Jun-25 16:30N 37°26' E 024°57'611.6
2017-Jun-25 15:59N 37°31' E 024°53'714.3
2017-Jun-25 15:30N 37°31' E 024°44'30 3.2
2017-Jun-25 05:55N 37°03' E 025°01'614.0
2017-Jun-25 05:30N 37°05' E 025°07'1 0.2
2017-Jun-25 01:32N 37°05' E 025°09'010.3
2017-Jun-25 01:31N 37°05' E 025°08'612.5
2017-Jun-25 01:01N 37°03' E 025°01'30 3.2
2017-Jun-24 15:36N 37°31' E 024°44'114.7
2017-Jun-24 15:30N 37°31' E 024°46'914.3
2017-Jun-24 14:55N 37°30' E 024°56'6 6.4
2017-Jun-24 14:00N 37°27' E 025°02'714.7
2017-Jun-24 13:30N 37°27' E 025°11'612.9
2017-Jun-24 13:00N 37°28' E 025°19'4 8.6
2017-Jun-24 12:30N 37°24' E 025°17'714.3
2017-Jun-24 12:00N 37°17' E 025°14'714.8
2017-Jun-24 11:31N 37°11' E 025°10'6 7.4
2017-Jun-24 10:45N 37°05' E 025°08'411.4
2017-Jun-24 10:23N 37°09' E 025°11'513.7
2017-Jun-24 10:00N 37°10' E 025°18'5 9.9
2017-Jun-24 09:30N 37°06' E 025°22'4 8.3
2017-Jun-24 09:00N 37°04' E 025°19'4 0.2
2017-Jun-23 14:40N 36°59' E 025°17'812.5
2017-Jun-23 14:00N 37°06' E 025°22'0 0.7
2017-Jun-23 13:30N 37°06' E 025°22'713.3
2017-Jun-23 13:00N 37°10' E 025°15'713.9
2017-Jun-23 12:30N 37°06' E 025°08'1 1.8
2017-Jun-23 11:59N 37°06' E 025°08'714.3
2017-Jun-23 11:30N 37°13' E 025°11'714.2
2017-Jun-23 10:59N 37°19' E 025°15'714.2
2017-Jun-23 10:30N 37°26' E 025°18'2 4.6
2017-Jun-23 10:00N 37°28' E 025°19'714.6
2017-Jun-23 09:30N 37°27' E 025°10'714.8
2017-Jun-23 09:00N 37°26' E 025°00'3 6.1
2017-Jun-23 08:30N 37°26' E 024°57'510.5
2017-Jun-23 07:59N 37°31' E 024°54'714.6
2017-Jun-23 07:30N 37°31' E 024°45'1 0.1
2017-Jun-22 10:16N 37°31' E 024°44'414.6
2017-Jun-22 10:00N 37°31' E 024°49'713.5
2017-Jun-22 09:30N 37°29' E 024°57'3 5.9
2017-Jun-22 09:00N 37°26' E 024°57'611.4
2017-Jun-22 08:30N 37°32' E 024°56'714.2
2017-Jun-22 08:00N 37°38' E 024°52'6 3.0
2017-Jun-22 06:01N 37°44' E 024°51'114.8
2017-Jun-22 05:57N 37°44' E 024°52'714.8
2017-Jun-22 05:27N 37°38' E 024°59'614.3
2017-Jun-22 05:00N 37°34' E 025°05'4 8.7
2017-Jun-22 04:31N 37°31' E 025°09'714.6
2017-Jun-22 04:00N 37°24' E 025°08'814.6
2017-Jun-22 03:29N 37°17' E 025°08'714.6
2017-Jun-22 03:01N 37°10' E 025°07'4 0.7
2017-Jun-21 20:21N 37°05' E 025°09'412.3
2017-Jun-21 20:00N 37°09' E 025°07'714.3
2017-Jun-21 19:31N 37°16' E 025°07'714.5
2017-Jun-21 19:00N 37°24' E 025°08'714.7
2017-Jun-21 18:31N 37°31' E 025°09'3 5.2
2017-Jun-21 18:00N 37°33' E 025°07'714.5
2017-Jun-21 17:30N 37°37' E 024°60'10 4.0
2017-Jun-21 15:03N 37°42' E 024°49'114.5
2017-Jun-21 15:00N 37°41' E 024°49'714.5
2017-Jun-21 14:30N 37°35' E 024°54'9 8.8
2017-Jun-21 13:30N 37°27' E 024°57'611.7
2017-Jun-21 13:00N 37°31' E 024°51'29 2.8
2017-Jun-21 02:44N 37°03' E 025°01'314.8
2017-Jun-21 02:30N 37°05' E 025°04'3 0.4
2017-Jun-20 19:16N 37°05' E 025°08'312.2
2017-Jun-20 19:00N 37°06' E 025°05'30 3.0
2017-Jun-20 09:03N 37°31' E 024°44'114.7
2017-Jun-20 09:00N 37°31' E 024°45'914.5
2017-Jun-20 08:22N 37°30' E 024°56'4 8.5
2017-Jun-20 07:56N 37°26' E 024°56'0 0.4
2017-Jun-20 07:30N 37°26' E 024°57'611.4
2017-Jun-20 06:57N 37°32' E 024°52'614.6
2017-Jun-20 06:30N 37°32' E 024°44'11 0.8
2017-Jun-19 15:53N 37°26' E 024°57'3 5.4
2017-Jun-19 15:25N 37°24' E 024°59'512.7
2017-Jun-19 15:00N 37°21' E 024°54'713.7
2017-Jun-19 14:31N 37°17' E 024°47'16 2.2
2017-Jun-19 07:05N 37°04' E 024°60'115.0
2017-Jun-19 07:00N 37°05' E 025°01'6 9.9
2017-Jun-19 06:22N 37°05' E 025°09'412.5
2017-Jun-19 06:00N 37°05' E 025°03'17 1.5
2017-Jun-18 18:23N 37°16' E 024°47'614.7
2017-Jun-18 18:00N 37°19' E 024°53'714.3
2017-Jun-18 17:31N 37°24' E 024°59'  
Track history (hours):
 
Tides and Currents Weather Stations Pressure Air Temp Water Temp Dewpoint Dewpoint Depression Visibility Wind Speed Wind Dir Waves Ship Positions

Artemis

Last reported at 2017-Jun-28 17:30 UTC. Time now 2017-Jun-28 17:37 UTC.
Position N 37°35' E 025°03'.

Length 89 m; draft 3.4 m.

Type: Ship. MMSI: 237026300.

Date/timePositionNaut miles runAvg speedWind from/ knotsBaromVisibWave heightAir tempDewpointWater temp
2017-Jun-28 17:30N 37°35' E 025°03'1214.5
2017-Jun-28 16:40N 37°44' E 024°52'3 1.7
2017-Jun-28 14:50N 37°42' E 024°49'514.6
2017-Jun-28 14:30N 37°38' E 024°52'1211.5
2017-Jun-28 13:28N 37°26' E 024°56'5 9.0
2017-Jun-28 12:55N 37°31' E 024°54'614.3
2017-Jun-28 12:30N 37°31' E 024°47'30 3.0
2017-Jun-28 02:43N 37°03' E 025°01'314.4
2017-Jun-28 02:30N 37°05' E 025°04'3 0.4
2017-Jun-27 18:46N 37°05' E 025°09'312.4
2017-Jun-27 18:31N 37°06' E 025°05'3214.0
2017-Jun-27 16:15N 36°50' E 024°30'414.4
2017-Jun-27 16:00N 36°48' E 024°26'2 1.8
2017-Jun-27 14:55N 36°47' E 024°25'46 7.5
2017-Jun-27 08:42N 37°31' E 024°44'314.4
2017-Jun-27 08:30N 37°31' E 024°47'714.0
2017-Jun-27 08:00N 37°30' E 024°56'4 7.8
2017-Jun-27 07:30N 37°26' E 024°56'6 8.4
2017-Jun-27 06:48N 37°31' E 024°52'414.4
2017-Jun-27 06:30N 37°31' E 024°47'2 0.2
2017-Jun-26 16:41N 37°31' E 024°44'314.8
2017-Jun-26 16:30N 37°31' E 024°47'714.4
2017-Jun-26 16:00N 37°30' E 024°56'4 6.2
2017-Jun-26 15:23N 37°26' E 024°56'4 9.5
2017-Jun-26 15:00N 37°23' E 024°58'713.9
2017-Jun-26 14:30N 37°19' E 024°51'18 2.4
2017-Jun-26 07:03N 37°03' E 025°01'113.9
2017-Jun-26 07:00N 37°04' E 025°02'6 8.1
2017-Jun-26 06:19N 37°05' E 025°09'412.0
2017-Jun-26 06:00N 37°05' E 025°04'17 1.4
2017-Jun-25 17:48N 37°16' E 024°47'515.2
2017-Jun-25 17:30N 37°19' E 024°51'815.4
2017-Jun-25 17:00N 37°24' E 024°59'3 5.9
2017-Jun-25 16:30N 37°26' E 024°57'611.6
2017-Jun-25 15:59N 37°31' E 024°53'714.3
2017-Jun-25 15:30N 37°31' E 024°44'30 3.2
2017-Jun-25 05:55N 37°03' E 025°01'614.0
2017-Jun-25 05:30N 37°05' E 025°07'1 0.2
2017-Jun-25 01:32N 37°05' E 025°09'010.3
2017-Jun-25 01:31N 37°05' E 025°08'612.5
2017-Jun-25 01:01N 37°03' E 025°01'30 3.2
2017-Jun-24 15:36N 37°31' E 024°44'114.7
2017-Jun-24 15:30N 37°31' E 024°46'914.3
2017-Jun-24 14:55N 37°30' E 024°56'6 6.4
2017-Jun-24 14:00N 37°27' E 025°02'714.7
2017-Jun-24 13:30N 37°27' E 025°11'612.9
2017-Jun-24 13:00N 37°28' E 025°19'4 8.6
2017-Jun-24 12:30N 37°24' E 025°17'714.3
2017-Jun-24 12:00N 37°17' E 025°14'714.8
2017-Jun-24 11:31N 37°11' E 025°10'6 7.4
2017-Jun-24 10:45N 37°05' E 025°08'411.4
2017-Jun-24 10:23N 37°09' E 025°11'513.7
2017-Jun-24 10:00N 37°10' E 025°18'5 9.9
2017-Jun-24 09:30N 37°06' E 025°22'4 8.3
2017-Jun-24 09:00N 37°04' E 025°19'4 0.2
2017-Jun-23 14:40N 36°59' E 025°17'812.5
2017-Jun-23 14:00N 37°06' E 025°22'0 0.7
2017-Jun-23 13:30N 37°06' E 025°22'713.3
2017-Jun-23 13:00N 37°10' E 025°15'713.9
2017-Jun-23 12:30N 37°06' E 025°08'1 1.8
2017-Jun-23 11:59N 37°06' E 025°08'714.3
2017-Jun-23 11:30N 37°13' E 025°11'714.2
2017-Jun-23 10:59N 37°19' E 025°15'714.2
2017-Jun-23 10:30N 37°26' E 025°18'2 4.6
2017-Jun-23 10:00N 37°28' E 025°19'714.6
2017-Jun-23 09:30N 37°27' E 025°10'714.8
2017-Jun-23 09:00N 37°26' E 025°00'3 6.1
2017-Jun-23 08:30N 37°26' E 024°57'510.5
2017-Jun-23 07:59N 37°31' E 024°54'714.6
2017-Jun-23 07:30N 37°31' E 024°45'1 0.1
2017-Jun-22 10:16N 37°31' E 024°44'414.6
2017-Jun-22 10:00N 37°31' E 024°49'713.5
2017-Jun-22 09:30N 37°29' E 024°57'3 5.9
2017-Jun-22 09:00N 37°26' E 024°57'611.4
2017-Jun-22 08:30N 37°32' E 024°56'714.2
2017-Jun-22 08:00N 37°38' E 024°52'6 3.0
2017-Jun-22 06:01N 37°44' E 024°51'114.8
2017-Jun-22 05:57N 37°44' E 024°52'714.8
2017-Jun-22 05:27N 37°38' E 024°59'614.3
2017-Jun-22 05:00N 37°34' E 025°05'4 8.7
2017-Jun-22 04:31N 37°31' E 025°09'714.6
2017-Jun-22 04:00N 37°24' E 025°08'814.6
2017-Jun-22 03:29N 37°17' E 025°08'714.6
2017-Jun-22 03:01N 37°10' E 025°07'4 0.7
2017-Jun-21 20:21N 37°05' E 025°09'412.3
2017-Jun-21 20:00N 37°09' E 025°07'714.3
2017-Jun-21 19:31N 37°16' E 025°07'714.5
2017-Jun-21 19:00N 37°24' E 025°08'714.7
2017-Jun-21 18:31N 37°31' E 025°09'3 5.2
2017-Jun-21 18:00N 37°33' E 025°07'714.5
2017-Jun-21 17:30N 37°37' E 024°60'10 4.0
2017-Jun-21 15:03N 37°42' E 024°49'114.5
2017-Jun-21 15:00N 37°41' E 024°49'714.5
2017-Jun-21 14:30N 37°35' E 024°54'9 8.8
2017-Jun-21 13:30N 37°27' E 024°57'611.7
2017-Jun-21 13:00N 37°31' E 024°51'29 2.8
2017-Jun-21 02:44N 37°03' E 025°01'314.8
2017-Jun-21 02:30N 37°05' E 025°04'3 0.4
2017-Jun-20 19:16N 37°05' E 025°08'312.2
2017-Jun-20 19:00N 37°06' E 025°05'30 3.0
2017-Jun-20 09:03N 37°31' E 024°44'114.7
2017-Jun-20 09:00N 37°31' E 024°45'914.5
2017-Jun-20 08:22N 37°30' E 024°56'4 8.5
2017-Jun-20 07:56N 37°26' E 024°56'0 0.4
2017-Jun-20 07:30N 37°26' E 024°57'611.4
2017-Jun-20 06:57N 37°32' E 024°52'614.6
2017-Jun-20 06:30N 37°32' E 024°44'11 0.8
2017-Jun-19 15:53N 37°26' E 024°57'3 5.4
2017-Jun-19 15:25N 37°24' E 024°59'512.7
2017-Jun-19 15:00N 37°21' E 024°54'713.7
2017-Jun-19 14:31N 37°17' E 024°47'16 2.2
2017-Jun-19 07:05N 37°04' E 024°60'115.0
2017-Jun-19 07:00N 37°05' E 025°01'6 9.9
2017-Jun-19 06:22N 37°05' E 025°09'412.5
2017-Jun-19 06:00N 37°05' E 025°03'17 1.5
2017-Jun-18 18:23N 37°16' E 024°47'614.7
2017-Jun-18 18:00N 37°19' E 024°53'714.3
2017-Jun-18 17:31N 37°24' E 024°59'  

Dump ship's entire track history